createdAt,value
2023-05-08T00:00:01.741Z,17
2023-05-08T00:12:01.614Z,17
2023-05-08T00:24:01.792Z,16.5
2023-05-08T00:36:01.738Z,17
2023-05-08T00:48:01.756Z,16.5
2023-05-08T01:00:01.680Z,16.5
2023-05-08T01:12:01.811Z,16.5
2023-05-08T01:24:01.763Z,16.5
2023-05-08T01:36:01.719Z,16.5
2023-05-08T01:48:01.916Z,16.5
2023-05-08T02:00:01.896Z,16.5
2023-05-08T02:12:01.767Z,15.5
2023-05-08T02:24:01.750Z,15.5
2023-05-08T02:36:01.885Z,15.5
2023-05-08T02:48:01.925Z,15.5
2023-05-08T03:00:01.796Z,15.5
2023-05-08T03:12:01.768Z,15.5
2023-05-08T03:24:01.909Z,15
2023-05-08T03:36:01.870Z,15
2023-05-08T03:48:01.871Z,14.5
2023-05-08T04:00:01.845Z,14.5
2023-05-08T04:12:01.964Z,14.5
2023-05-08T04:24:02.138Z,14
2023-05-08T04:36:01.887Z,13.5
2023-05-08T04:48:02.121Z,13.5
2023-05-08T05:00:02.001Z,13.5
2023-05-08T05:12:01.977Z,12.5
2023-05-08T05:24:01.909Z,12.5
2023-05-08T05:36:02.098Z,12.5
2023-05-08T05:48:02.065Z,12.5
2023-05-08T06:00:02.003Z,12.5
2023-05-08T06:12:01.932Z,12.5
2023-05-08T06:24:02.376Z,13
2023-05-08T06:36:02.052Z,12.5
2023-05-08T06:48:02.094Z,13
2023-05-08T07:00:02.194Z,14
2023-05-08T07:12:02.165Z,13.5
2023-05-08T07:24:02.118Z,13.5
2023-05-08T07:36:02.105Z,13.5
2023-05-08T07:48:02.081Z,14
2023-05-08T08:00:02.209Z,16
2023-05-08T08:12:02.147Z,16
2023-05-08T08:24:02.221Z,16
2023-05-08T08:36:02.080Z,16
2023-05-08T08:48:02.489Z,16.5
2023-05-08T09:00:02.177Z,17
2023-05-08T09:12:02.316Z,18.5
2023-05-08T09:24:02.311Z,18.5
2023-05-08T09:36:02.520Z,19
2023-05-08T09:48:02.369Z,21.5
2023-05-08T10:00:02.360Z,20.5
2023-05-08T10:12:02.359Z,19.5
2023-05-08T10:24:02.430Z,19
2023-05-08T10:36:02.264Z,19
2023-05-08T10:48:02.382Z,19.5
2023-05-08T11:00:02.403Z,20
2023-05-08T11:12:02.296Z,20
2023-05-08T11:24:02.276Z,20
2023-05-08T11:36:02.453Z,21
2023-05-08T11:48:02.399Z,21
2023-05-08T12:00:02.566Z,21
2023-05-08T12:12:02.332Z,21
2023-05-08T12:24:02.410Z,22.5
2023-05-08T12:36:02.495Z,21.5
2023-05-08T12:48:02.643Z,20.5
2023-05-08T13:00:04.280Z,19.5
2023-05-08T13:12:02.479Z,21
2023-05-08T13:24:02.549Z,21.5
2023-05-08T13:36:02.593Z,21.5
2023-05-08T13:48:02.443Z,20.5
2023-05-08T14:00:02.512Z,21
2023-05-08T14:12:02.851Z,21
2023-05-08T14:24:02.810Z,19
2023-05-08T14:36:02.773Z,18.5
2023-05-08T14:48:03.421Z,19.5
2023-05-08T15:00:02.471Z,19.5
2023-05-08T15:12:02.903Z,18.5
2023-05-08T15:24:02.628Z,18
2023-05-08T15:36:02.814Z,20.5
2023-05-08T15:48:02.679Z,21
2023-05-08T16:00:02.774Z,21
2023-05-08T16:12:02.564Z,21
2023-05-08T16:24:02.835Z,20.5
2023-05-08T16:36:02.657Z,21
2023-05-08T16:48:02.782Z,19.5
2023-05-08T17:00:02.635Z,19
2023-05-08T17:12:02.872Z,18.5
2023-05-08T17:24:02.706Z,18.5
2023-05-08T17:36:02.766Z,17.5
2023-05-08T17:48:03.534Z,17.5
2023-05-08T18:00:03.110Z,17
2023-05-08T18:12:02.788Z,16.5
2023-05-08T18:36:02.711Z,16
2023-05-08T18:48:02.823Z,17
2023-05-08T19:00:02.867Z,17
2023-05-08T19:12:03.219Z,16.5
2023-05-08T19:24:02.747Z,16.5
2023-05-08T19:36:03.040Z,16.5
2023-05-08T19:48:06.163Z,16.5
2023-05-08T20:00:02.974Z,16.5
2023-05-08T20:12:02.772Z,16.5
2023-05-08T20:24:03.049Z,15.5
2023-05-08T20:36:03.018Z,15.5
2023-05-08T20:48:02.872Z,15.5
2023-05-08T21:00:02.995Z,16
2023-05-08T21:12:03.072Z,16
2023-05-08T21:24:02.913Z,16
2023-05-08T21:36:03.019Z,15.5
2023-05-08T21:48:03.478Z,15.5
2023-05-08T22:00:03.118Z,15.5
2023-05-08T22:12:02.956Z,15.5
2023-05-08T22:24:03.070Z,15.5
2023-05-08T22:36:03.169Z,16
2023-05-08T22:48:03.157Z,15.5
2023-05-08T23:00:02.993Z,15
2023-05-08T23:12:03.065Z,14.5
2023-05-08T23:24:03.093Z,14.5
2023-05-08T23:36:03.228Z,15
2023-05-08T23:48:03.039Z,15
